Map

Track Data

SID SEASON NUMBER BASIN SUBBASIN NAME ISO_TIME NATURE LAT LON WMO_WIND WMO_PRES WMO_AGENCY TRACK_TYPE DIST2LAND LANDFALL IFLAG USA_AGENCY USA_ATCF_ID USA_LAT USA_LON USA_RECORD USA_STATUS USA_WIND USA_PRES USA_SSHS USA_R34_NE USA_R34_SE USA_R34_SW USA_R34_NW USA_R50_NE USA_R50_SE USA_R50_SW USA_R50_NW USA_R64_NE USA_R64_SE USA_R64_SW USA_R64_NW USA_POCI USA_ROCI USA_RMW USA_EYE TOKYO_LAT TOKYO_LON TOKYO_GRADE TOKYO_WIND TOKYO_PRES TOKYO_R50_DIR TOKYO_R50_LONG TOKYO_R50_SHORT TOKYO_R30_DIR TOKYO_R30_LONG TOKYO_R30_SHORT TOKYO_LAND CMA_LAT CMA_LON CMA_CAT CMA_WIND CMA_PRES HKO_LAT HKO_LON HKO_CAT HKO_WIND HKO_PRES NEWDELHI_LAT NEWDELHI_LON NEWDELHI_GRADE NEWDELHI_WIND NEWDELHI_PRES NEWDELHI_CI NEWDELHI_DP NEWDELHI_POCI REUNION_LAT REUNION_LON REUNION_TYPE REUNION_WIND REUNION_PRES REUNION_TNUM REUNION_CI REUNION_RMW REUNION_R34_NE REUNION_R34_SE REUNION_R34_SW REUNION_R34_NW REUNION_R50_NE REUNION_R50_SE REUNION_R50_SW REUNION_R50_NW REUNION_R64_NE REUNION_R64_SE REUNION_R64_SW REUNION_R64_NW BOM_LAT BOM_LON BOM_TYPE BOM_WIND BOM_PRES BOM_TNUM BOM_CI BOM_RMW BOM_R34_NE BOM_R34_SE BOM_R34_SW BOM_R34_NW BOM_R50_NE BOM_R50_SE BOM_R50_SW BOM_R50_NW BOM_R64_NE BOM_R64_SE BOM_R64_SW BOM_R64_NW BOM_ROCI BOM_POCI BOM_EYE BOM_POS_METHOD BOM_PRES_METHOD NADI_LAT NADI_LON NADI_CAT NADI_WIND NADI_PRES WELLINGTON_LAT WELLINGTON_LON WELLINGTON_WIND WELLINGTON_PRES DS824_LAT DS824_LON DS824_STAGE DS824_WIND DS824_PRES TD9636_LAT TD9636_LON TD9636_STAGE TD9636_WIND TD9636_PRES TD9635_LAT TD9635_LON TD9635_WIND TD9635_PRES TD9635_ROCI NEUMANN_LAT NEUMANN_LON NEUMANN_CLASS NEUMANN_WIND NEUMANN_PRES MLC_LAT MLC_LON MLC_CLASS MLC_WIND MLC_PRES USA_GUST BOM_GUST BOM_GUST_PER REUNION_GUST REUNION_GUST_PER USA_SEAHGT USA_SEARAD_NE USA_SEARAD_SE USA_SEARAD_SW USA_SEARAD_NW STORM_SPEED STORM_DIR
1987203N11263 1987 47 EP MM EUGENE 1987-07-22 00:00:00 TS 11.0000 -97.0000 25 hurdat_epa main 516 511 O_________O___ hurdat_epa EP051987 11.0000 -97.0000 TD 25 -1 11.0000 -97.0000 1 25 14 277
1987203N11263 1987 47 EP MM EUGENE 1987-07-22 03:00:00 TS 11.0917 -97.7111 main 517 517 P_________P___ EP051987 11.0729 -97.7175 TD 25 -1 11.1483 -97.6919 1 26 14 279
1987203N11263 1987 47 EP MM EUGENE 1987-07-22 06:00:00 TS 11.2266 -98.3918 25 hurdat_epa main 529 523 O_________P___ hurdat_epa EP051987 11.2000 -98.4000 TD 25 -1 11.3065 -98.3673 1 27 13 285
1987203N11263 1987 47 EP MM EUGENE 1987-07-22 09:00:00 TS 11.4365 -99.0191 main 531 515 P_________P___ EP051987 11.4198 -99.0225 TD 27 -1 11.4865 -99.0090 1 28 13 292
1987203N11263 1987 47 EP MM EUGENE 1987-07-22 12:00:00 TS 11.7000 -99.6000 30 hurdat_epa main 519 507 O_________O___ hurdat_epa EP051987 11.7000 -99.6000 TD 30 -1 11.7000 -99.6000 1 30 13 296
1987203N11263 1987 47 EP MM EUGENE 1987-07-22 15:00:00 TS 11.9833 -100.178 main 511 496 P_________P___ EP051987 11.9925 -100.195 TD 32 -1 11.9555 -100.126 1 31 12 299
1987203N11263 1987 47 EP MM EUGENE 1987-07-22 18:00:00 TS 12.2868 -100.671 35 hurdat_epa main 501 479 O_________P___ hurdat_epa EP051987 12.3000 -100.700 TS 35 0 12.2470 -100.585 1 32 10 306
1987203N11263 1987 47 EP MM EUGENE 1987-07-22 21:00:00 TS 12.5855 -101.028 main 479 458 P_________P___ EP051987 12.5923 -101.045 TS 35 0 12.5650 -100.976 1 33 9 315
1987203N11263 1987 47 EP MM EUGENE 1987-07-23 00:00:00 TS 12.9000 -101.300 35 hurdat_epa main 458 436 O_________O___ hurdat_epa EP051987 12.9000 -101.300 TS 35 0 12.9000 -101.300 2 35 8 321
1987203N11263 1987 47 EP MM EUGENE 1987-07-23 03:00:00 TS 13.2417 -101.574 main 441 413 P_________P___ EP051987 13.2425 -101.573 TS 37 0 13.2393 -101.577 2 37 9 325
1987203N11263 1987 47 EP MM EUGENE 1987-07-23 06:00:00 TS 13.5980 -101.798 40 hurdat_epa main 413 387 O_________P___ hurdat_epa EP051987 13.6000 -101.800 TS 40 0 13.5921 -101.790 2 40 8 332
1987203N11263 1987 47 EP MM EUGENE 1987-07-23 09:00:00 TS 13.9440 -101.963 main 391 352 P_________P___ EP051987 13.9425 -101.965 TS 42 0 13.9488 -101.958 2 42 8 337
1987203N11263 1987 47 EP MM EUGENE 1987-07-23 12:00:00 TS 14.3000 -102.100 45 hurdat_epa main 352 313 O_________O___ hurdat_epa EP051987 14.3000 -102.100 TS 45 0 14.3000 -102.100 2 45 8 340
1987203N11263 1987 47 EP MM EUGENE 1987-07-23 15:00:00 TS 14.7014 -102.251 main 318 282 P_________P___ EP051987 14.7150 -102.257 TS 47 0 14.6604 -102.231 2 47 8 340
1987203N11263 1987 47 EP MM EUGENE 1987-07-23 18:00:00 TS 15.0774 -102.386 50 hurdat_epa main 282 259 O_________P___ hurdat_epa EP051987 15.1000 -102.400 TS 50 0 15.0097 -102.343 2 50 7 342
1987203N11263 1987 47 EP MM EUGENE 1987-07-23 21:00:00 TS 15.3729 -102.484 main 259 248 P_________P___ EP051987 15.3875 -102.493 TS 52 0 15.3292 -102.459 2 52 6 339
1987203N11263 1987 47 EP MM EUGENE 1987-07-24 00:00:00 TS 15.6000 -102.600 55 hurdat_epa main 248 240 O_________O___ hurdat_epa EP051987 15.6000 -102.600 TS 55 0 15.6000 -102.600 2 55 5 324
1987203N11263 1987 47 EP MM EUGENE 1987-07-24 03:00:00 TS 15.7647 -102.784 main 240 232 P_________P___ EP051987 15.7650 -102.778 TS 57 0 15.7639 -102.805 2 57 5 307
1987203N11263 1987 47 EP MM EUGENE 1987-07-24 06:00:00 TS 15.8963 -103.009 60 hurdat_epa main 235 229 O_________P___ hurdat_epa EP051987 15.9000 -103.000 TS 60 0 15.8851 -103.036 2 60 5 300
1987203N11263 1987 47 EP MM EUGENE 1987-07-24 09:00:00 TS 16.0297 -103.262 main 235 221 P_________P___ EP051987 16.0350 -103.258 TS 62 0 16.0139 -103.274 2 62 6 303
1987203N11263 1987 47 EP MM EUGENE 1987-07-24 12:00:00 TS 16.2000 -103.500 65 hurdat_epa main 221 204 O_________O___ hurdat_epa EP051987 16.2000 -103.500 HU 65 1 16.2000 -103.500 3 65 6 315
1987203N11263 1987 47 EP MM EUGENE 1987-07-24 15:00:00 TS 16.4236 -103.665 main 208 179 P_________P___ EP051987 16.3974 -103.658 HU 70 1 16.5021 -103.685 3 68 6 331
1987203N11263 1987 47 EP MM EUGENE 1987-07-24 18:00:00 TS 16.7418 -103.814 75 hurdat_epa main 179 133 O_________P___ hurdat_epa EP051987 16.7000 -103.800 HU 75 1 16.8674 -103.858 3 72 8 338
1987203N11263 1987 47 EP MM EUGENE 1987-07-24 21:00:00 TS 17.2016 -104.001 main 133 99 P_________P___ EP051987 17.1775 -103.992 HU 77 1 17.2740 -104.026 3 76 10 339
1987203N11263 1987 47 EP MM EUGENE 1987-07-25 00:00:00 TS 17.7000 -104.200 80 hurdat_epa main 99 90 O_________O___ hurdat_epa EP051987 17.7000 -104.200 HU 80 1 17.7000 -104.200 4 80 10 337
1987203N11263 1987 47 EP MM EUGENE 1987-07-25 03:00:00 TS 18.1123 -104.399 main 95 64 P_________P___ EP051987 18.1075 -104.400 HU 82 1 18.1269 -104.397 4 80 9 335
1987203N11263 1987 47 EP MM EUGENE 1987-07-25 06:00:00 TS 18.5162 -104.600 85 hurdat_epa main 64 33 O_________P___ hurdat_epa EP051987 18.5000 -104.600 HU 85 2 18.5650 -104.600 4 80 10 336
1987203N11263 1987 47 EP MM EUGENE 1987-07-25 09:00:00 TS 18.9727 -104.812 main 22 0 P_________P___ EP051987 18.9650 -104.815 HU 82 1 18.9956 -104.803 4 80 10 337
1987203N11263 1987 47 EP MM EUGENE 1987-07-25 12:00:00 TS 19.4000 -105.000 80 hurdat_epa main 0 0 O_________O___ hurdat_epa EP051987 19.4000 -105.000 HU 80 1 19.4000 -105.000 4 80 8 339
1987203N11263 1987 47 EP MM EUGENE 1987-07-25 15:00:00 TS 19.7246 -105.116 main 0 0 P_________P___ EP051987 19.7149 -105.093 HU 65 1 19.7537 -105.187 4 70 7 340
1987203N11263 1987 47 EP MM EUGENE 1987-07-25 18:00:00 TS 20.0200 -105.241 50 hurdat_epa main 0 0 O_________P___ hurdat_epa EP051987 20.0000 -105.200 TS 50 0 20.0799 -105.365 4 60 7 332
1987203N11263 1987 47 EP MM EUGENE 1987-07-25 21:00:00 TS 20.3548 -105.471 main 0 0 P_________P___ EP051987 20.3426 -105.450 TS 45 0 20.3912 -105.537 4 50 8 328
1987203N11263 1987 47 EP MM EUGENE 1987-07-26 00:00:00 TS 20.7000 -105.700 40 hurdat_epa main 23 20 O_________O___ hurdat_epa EP051987 20.7000 -105.700 TS 40 0 20.7000 -105.700 2 40 8 335
1987203N11263 1987 47 EP MM EUGENE 1987-07-26 03:00:00 TS 21.0471 -105.820 main 38 38 P_________P___ EP051987 21.0574 -105.808 TS 35 0 21.0163 -105.856 2 35 7 343
1987203N11263 1987 47 EP MM EUGENE 1987-07-26 06:00:00 TS 21.3850 -105.927 30 hurdat_epa main 56 56 O_________P___ hurdat_epa EP051987 21.4000 -105.900 TD 30 -1 21.3401 -106.007 2 30 7 339
1987203N11263 1987 47 EP MM EUGENE 1987-07-26 09:00:00 TS 21.6998 -106.093 main 61 56 P_________P___ EP051987 21.7101 -106.072 TD 25 -1 21.6689 -106.154 2 25 7 330
1987203N11263 1987 47 EP MM EUGENE 1987-07-26 12:00:00 TS 22.0000 -106.300 20 hurdat_epa main 70 O_________O___ hurdat_epa EP051987 22.0000 -106.300 TD 20 -1 22.0000 -106.300 1 20 7 327

About IBTrACS Database

This database is a web-friendly format of International Best Track Archive for Climate Stewardship (IBTrACS), a global best track data archive curated by NOAA dating back to 1842.

Updated: 2021-10-19